createdAt,value
2018-11-12T00:02:48.010Z,2.70
2018-11-12T00:07:54.368Z,3.10
2018-11-12T00:12:58.512Z,2.57
2018-11-12T00:18:02.980Z,2.60
2018-11-12T00:23:06.962Z,2.83
2018-11-12T00:28:11.166Z,3.20
2018-11-12T00:33:15.128Z,2.93
2018-11-12T00:38:19.524Z,2.60
2018-11-12T00:43:23.485Z,2.80
2018-11-12T00:48:28.570Z,2.60
2018-11-12T00:53:33.083Z,2.60
2018-11-12T00:58:37.929Z,2.33
2018-11-12T01:03:42.189Z,3.20
2018-11-12T01:08:46.394Z,2.60
2018-11-12T01:13:50.566Z,2.40
2018-11-12T01:18:54.863Z,2.57
2018-11-12T01:23:58.840Z,2.70
2018-11-12T01:29:10.295Z,2.70
2018-11-12T01:34:15.496Z,2.70
2018-11-12T01:39:25.720Z,2.80
2018-11-12T01:44:31.905Z,2.87
2018-11-12T01:49:37.696Z,2.90
2018-11-12T01:54:44.187Z,3.00
2018-11-12T01:59:48.696Z,3.10
2018-11-12T02:04:53.201Z,2.53
2018-11-12T02:09:57.220Z,2.80
2018-11-12T02:15:03.995Z,3.00
2018-11-12T02:20:12.504Z,2.60
2018-11-12T02:25:16.854Z,3.10
2018-11-12T02:30:26.242Z,2.77
2018-11-12T02:35:30.057Z,2.83
2018-11-12T02:40:33.974Z,4.10
2018-11-12T02:45:38.670Z,4.97
2018-11-12T02:50:42.498Z,3.07
2018-11-12T02:55:46.326Z,3.20
2018-11-12T03:00:50.394Z,3.10
2018-11-12T03:05:54.278Z,2.83
2018-11-12T03:10:58.281Z,3.07
2018-11-12T03:16:02.605Z,3.20
2018-11-12T03:21:09.265Z,2.80
2018-11-12T03:26:13.334Z,2.60
2018-11-12T03:31:23.799Z,2.73
2018-11-12T03:36:31.265Z,2.70
2018-11-12T03:41:35.666Z,2.67
2018-11-12T03:46:39.835Z,2.83
2018-11-12T03:51:43.989Z,2.83
2018-11-12T03:56:48.102Z,2.23
2018-11-12T04:01:52.075Z,2.57
2018-11-12T04:06:56.405Z,2.47
2018-11-12T04:12:00.345Z,2.70
2018-11-12T04:17:04.647Z,3.00
2018-11-12T04:22:08.505Z,2.33
2018-11-12T04:27:12.586Z,2.60
2018-11-12T04:32:16.684Z,3.00
2018-11-12T04:37:23.317Z,2.60
2018-11-12T04:42:27.655Z,2.73
2018-11-12T04:47:31.745Z,2.50
2018-11-12T04:52:35.703Z,5.50
2018-11-12T04:57:41.104Z,3.73
2018-11-12T05:02:45.562Z,2.90
2018-11-12T05:07:52.929Z,2.87
2018-11-12T05:12:56.991Z,2.93
2018-11-12T05:18:01.799Z,2.80
2018-11-12T05:23:05.844Z,3.17
2018-11-12T05:28:09.991Z,4.03
2018-11-12T05:33:14.284Z,3.83
2018-11-12T05:38:24.392Z,3.50
2018-11-12T05:43:40.321Z,2.97
2018-11-12T05:48:59.143Z,3.33
2018-11-12T05:54:10.396Z,5.97
2018-11-12T05:59:14.931Z,5.20
2018-11-12T06:20:44.491Z,4.43
2018-11-12T06:25:48.454Z,4.20
2018-11-12T06:30:52.213Z,3.60
2018-11-12T06:35:56.077Z,3.80
2018-11-12T06:41:00.066Z,3.23
2018-11-12T06:46:04.218Z,2.73
2018-11-12T06:51:07.921Z,2.87
2018-11-12T06:56:11.859Z,2.80
2018-11-12T07:01:15.705Z,2.13
2018-11-12T07:06:19.788Z,2.50
2018-11-12T07:11:23.820Z,2.73
2018-11-12T07:16:27.608Z,2.73
2018-11-12T07:21:31.631Z,2.80
2018-11-12T07:26:35.515Z,3.30
2018-11-12T07:42:54.703Z,2.80
2018-11-12T07:47:58.903Z,3.20
2018-11-12T07:53:03.310Z,2.93
2018-11-12T07:58:06.896Z,3.80
2018-11-12T08:25:15.908Z,3.07
2018-11-12T08:30:21.488Z,2.10
2018-11-12T08:35:26.738Z,4.03
2018-11-12T08:40:31.360Z,3.83
2018-11-12T08:51:25.723Z,2.73
2018-11-12T08:56:29.392Z,3.00
2018-11-12T09:01:33.502Z,2.37
2018-11-12T09:06:37.737Z,3.10
2018-11-12T09:11:41.506Z,2.43
2018-11-12T09:16:44.834Z,2.27
2018-11-12T09:21:48.250Z,2.60
2018-11-12T09:26:51.614Z,2.57
2018-11-12T09:31:55.140Z,3.07
2018-11-12T09:36:59.862Z,2.60
2018-11-12T09:42:04.012Z,2.40
2018-11-12T09:47:07.730Z,2.30
2018-11-12T09:52:11.454Z,2.33
2018-11-12T09:57:14.864Z,2.23
2018-11-12T10:02:19.109Z,2.43
2018-11-12T10:07:23.262Z,3.57
2018-11-12T10:12:27.311Z,4.13
2018-11-12T10:17:31.556Z,3.10
2018-11-12T10:22:32.127Z,3.90
2018-11-12T10:27:35.417Z,4.33
2018-11-12T10:32:38.909Z,5.90
2018-11-12T10:37:42.759Z,4.03
2018-11-12T10:42:46.418Z,4.67
2018-11-12T10:47:50.853Z,4.00
2018-11-12T10:52:54.176Z,6.33
2018-11-12T10:57:57.658Z,3.47
2018-11-12T11:03:08.454Z,3.20
2018-11-12T11:08:11.991Z,2.57
2018-11-12T11:13:16.732Z,3.20
2018-11-12T11:18:21.116Z,2.77
2018-11-12T11:23:25.914Z,4.35
2018-11-12T11:28:31.369Z,3.52
2018-11-12T11:33:42.128Z,3.10
2018-11-12T11:38:46.131Z,2.80
2018-11-12T11:43:51.535Z,2.90
2018-11-12T11:48:55.399Z,3.80
2018-11-12T11:54:01.923Z,2.60
2018-11-12T11:59:06.748Z,2.70
2018-11-12T12:04:12.999Z,2.72
2018-11-12T12:09:19.627Z,2.27
2018-11-12T12:14:25.219Z,2.43
2018-11-12T12:19:30.928Z,5.03
2018-11-12T12:24:38.832Z,2.20
2018-11-12T12:29:46.676Z,1.90
2018-11-12T12:34:53.947Z,2.00
2018-11-12T12:39:57.647Z,1.67
2018-11-12T12:45:01.463Z,1.52
2018-11-12T12:50:06.067Z,1.70
2018-11-12T12:55:13.304Z,1.70
2018-11-12T13:00:22.348Z,1.80
2018-11-12T13:05:28.282Z,1.85
2018-11-12T13:10:34.586Z,1.85
2018-11-12T13:15:42.443Z,1.60
2018-11-12T13:20:50.547Z,1.62
2018-11-12T13:25:55.749Z,1.75
2018-11-12T13:31:00.144Z,2.00
2018-11-12T13:36:05.799Z,1.72
2018-11-12T13:41:10.050Z,1.42
2018-11-12T13:46:13.526Z,1.40
2018-11-12T13:51:17.422Z,1.30
2018-11-12T13:56:20.756Z,1.87
2018-11-12T14:01:24.539Z,1.55
2018-11-12T14:06:29.217Z,1.52
2018-11-12T14:11:32.585Z,1.60
2018-11-12T14:16:36.113Z,1.20
2018-11-12T14:21:39.919Z,1.60
2018-11-12T14:26:43.024Z,1.50
2018-11-12T14:31:46.399Z,1.35
2018-11-12T14:36:49.719Z,1.42
2018-11-12T14:41:53.130Z,1.95
2018-11-12T14:46:56.415Z,1.85
2018-11-12T14:51:59.702Z,2.22
2018-11-12T14:57:03.036Z,2.20
2018-11-12T15:02:06.409Z,2.33
2018-11-12T15:07:09.726Z,2.12
2018-11-12T15:12:13.368Z,2.50
2018-11-12T15:17:16.842Z,2.40
2018-11-12T15:22:21.955Z,4.20
2018-11-12T15:27:25.835Z,2.70
2018-11-12T15:32:29.468Z,2.67
2018-11-12T15:37:34.581Z,2.97
2018-11-12T15:48:39.863Z,2.70
2018-11-12T16:10:51.473Z,4.33
2018-11-12T16:16:16.175Z,3.42
2018-11-12T16:21:21.234Z,3.40
2018-11-12T16:26:25.136Z,3.33
2018-11-12T16:31:29.238Z,3.65
2018-11-12T16:36:33.057Z,3.90
2018-11-12T16:41:36.831Z,4.13
2018-11-12T16:46:41.726Z,4.13
2018-11-12T16:51:45.549Z,4.00
2018-11-12T16:56:49.152Z,4.63
2018-11-12T17:01:52.887Z,5.50
2018-11-12T17:06:56.794Z,4.87
2018-11-12T17:12:00.243Z,5.73
2018-11-12T17:17:03.803Z,5.10
2018-11-12T17:22:07.565Z,4.73
2018-11-12T17:27:11.616Z,5.47
2018-11-12T17:32:15.118Z,4.73
2018-11-12T17:37:18.613Z,5.40
2018-11-12T17:42:22.489Z,5.70
2018-11-12T17:47:26.076Z,5.43
2018-11-12T17:52:29.798Z,5.10
2018-11-12T17:57:33.255Z,5.77
2018-11-12T18:02:36.672Z,4.90
2018-11-12T18:07:40.988Z,5.00
2018-11-12T18:12:44.328Z,4.40
2018-11-12T18:17:48.033Z,5.03
2018-11-12T18:22:52.280Z,9.13
2018-11-12T18:27:56.494Z,9.37
2018-11-12T18:33:00.322Z,8.20
2018-11-12T18:38:04.129Z,6.20
2018-11-12T18:43:07.929Z,5.50
2018-11-12T18:48:11.483Z,5.70
2018-11-12T18:53:15.148Z,5.90
2018-11-12T18:58:18.796Z,6.00
2018-11-12T19:03:22.406Z,6.27
2018-11-12T19:08:26.086Z,5.87
2018-11-12T19:13:29.777Z,6.53
2018-11-12T19:18:34.222Z,5.47
2018-11-12T19:23:38.188Z,5.33
2018-11-12T19:28:41.599Z,5.30
2018-11-12T19:33:45.333Z,4.87
2018-11-12T19:38:48.972Z,4.60
2018-11-12T19:43:52.714Z,4.87
2018-11-12T19:48:56.479Z,5.47
2018-11-12T19:54:00.897Z,5.10
2018-11-12T19:59:04.878Z,5.40
2018-11-12T20:04:08.716Z,5.33
2018-11-12T20:09:12.510Z,5.60
2018-11-12T20:14:16.159Z,5.87
2018-11-12T20:19:19.785Z,6.03
2018-11-12T20:24:23.122Z,6.33
2018-11-12T20:29:27.074Z,6.07
2018-11-12T20:34:30.690Z,5.97
2018-11-12T20:39:34.005Z,6.43
2018-11-12T20:44:37.392Z,6.10
2018-11-12T20:49:41.131Z,6.33
2018-11-12T20:54:44.447Z,7.17
2018-11-12T20:59:47.867Z,6.60
2018-11-12T21:04:51.425Z,6.13
2018-11-12T21:09:54.878Z,6.43
2018-11-12T21:14:58.257Z,6.13
2018-11-12T21:20:01.628Z,5.90
2018-11-12T21:25:05.644Z,5.90
2018-11-12T21:30:11.405Z,5.40
2018-11-12T21:35:14.760Z,5.70
2018-11-12T21:40:19.524Z,5.90
2018-11-12T21:45:26.414Z,6.73
2018-11-12T21:50:29.848Z,6.28
2018-11-12T21:55:33.260Z,5.90
2018-11-12T22:00:36.689Z,5.60
2018-11-12T22:05:40.166Z,5.63
2018-11-12T22:10:43.548Z,5.20
2018-11-12T22:15:46.957Z,5.97
2018-11-12T22:20:50.587Z,5.67
2018-11-12T22:25:53.969Z,5.37
2018-11-12T22:30:57.402Z,5.80
2018-11-12T22:36:01.040Z,5.27
2018-11-12T22:41:04.534Z,6.07
2018-11-12T22:46:08.077Z,4.83
2018-11-12T22:51:11.430Z,4.97
2018-11-12T22:56:14.837Z,5.03
2018-11-12T23:01:18.219Z,5.23
2018-11-12T23:06:21.617Z,5.47
2018-11-12T23:11:24.992Z,5.20
2018-11-12T23:16:28.428Z,5.13
2018-11-12T23:21:31.755Z,5.43
2018-11-12T23:26:35.324Z,5.43
2018-11-12T23:31:38.832Z,5.60
2018-11-12T23:36:42.178Z,5.13
2018-11-12T23:41:45.509Z,4.83
2018-11-12T23:46:49.000Z,5.07
2018-11-12T23:51:52.513Z,5.17
2018-11-12T23:56:56.069Z,4.87
